NWS Home NWS Lubbock West Texas Mesonet                      Daily Summary For 01/16/2021

Latest   N   C   S   Daily Sum   3hrΔ   24hrΔ   Soil Data 
Site Map   24hr Precip   72hr Precip   Google Plot


Station Time of Last Max Temp Min Temp Max/Min Dew Pt. Max/Min RH 10m Avg Wind 2m Avg Wind Peak Gust @ 33ft (mph) Potential Evapotranspiration
mm/day or in/day
Rain Sum Solar Rad
MJ/m^2
% Clear Day Red Flag
Abernathy 5ENE 11:59 PM 79 36 57 /28 68 / 47 6.1  (NW) 3.6 13.2 mph 199° @ 0107 PM 1.5 or 0.06 0.00 7.3 54.1 0
Adrian 6WSW 11:59 PM 79 36 57 /28 68 / 47 8.5  (W) 5.4 20 mph 44° @ 0525 PM 1.8 or 0.07 0.00 9.2 70.5 0
Aiken 3WSW 11:59 PM 79 36 57 /28 68 / 47 6.6  (NW) 4.1 14.6 mph 208° @ 1256 PM 1.5 or 0.06 0.00 8.1 60.3 0
Amarillo 15NNW 11:59 PM 79 36 57 /28 68 / 47 6.5  (W) 4.4 21 mph 353° @ 0434 PM 1.5 or 0.06 0.00 8.6 67.2 0
Amarillo 7SSE 11:59 PM 79 36 57 /28 68 / 47 7.8  (W) 5.3 16.8 mph 218° @ 1205 PM 1.8 or 0.07 0.00 8.1 62.1 0
Amarillo 9NNE 11:59 PM 79 36 57 /28 68 / 47 3.8  (S) 2.7 17.2 mph 5° @ 0541 PM 1.3 or 0.05 0.00 8 61.8 0
Amherst 1NE 11:55 PM 79 36 57 /28 68 / 47 6.9  (W) 4.5 17.1 mph 163° @ 1155 AM 1.5 or 0.06 0.00 1.5 57 0
Andrews 2E 11:59 PM 79 36 57 /28 68 / 47 7.7  (W) 3.7 21.9 mph 157° @ 1225 PM 2.3 or 0.09 0.00 10.7 75.2 0
Anton 6SSW 11:55 PM 79 36 57 /28 68 / 47 6.6  (NW) 4.4 17.5 mph 161° @ 1235 PM 1.3 or 0.05 0.00 8 58.7 0
Aspermont 3NE 11:55 PM 79 36 57 /28 68 / 47 5  (W) 1.9 17.5 mph 206° @ 0125 PM 1.5 or 0.06 0.00 2.1 77.9 0
Big Bend NP - Castolon 11:59 PM 79 36 57 /28 68 / 47 3.7  (W) 2.5 18.6 mph 291° @ 1056 PM 2 or 0.08 0.00 17.3 110.4 0
Big Bend NP - Persimmon Gap 11:59 PM 79 36 57 /28 68 / 47 7.3  (N) 5.4 26.1 mph 55° @ 0746 PM 2.8 or 0.11 0.00 17 109.9 0
Big Lake 1WNW 11:59 PM 79 36 57 /28 68 / 47 7.4  (SW) 4.9 25.1 mph 167° @ 1223 PM 2.3 or 0.09 0.00 16.1 108.9 0
Bootleg 11WNW 11:59 PM 79 36 57 /28 68 / 47 9.2  (W) 6.1 20.4 mph 237° @ 0646 AM 1.8 or 0.07 0.00 7.4 56.4 0
Borger 7E 11:59 PM 79 36 57 /28 68 / 47 9.8  (NW) 6.8 25.2 mph 339° @ 0246 PM 2 or 0.08 0.00 11 86.8 0
Boys Ranch 1WSW 11:59 PM 79 36 57 /28 68 / 47 5.3  (NW) 3.9 22.7 mph 27° @ 0502 PM 1.5 or 0.06 0.00 10.4 81.3 0
Brownfield 2S 11:59 PM 79 36 57 /28 68 / 47 8.8  (W) 6 20.8 mph 178° @ 1119 AM 1.5 or 0.06 0.00 8.4 60.2 0
Canadian 6E 11:59 PM 79 36 57 /28 68 / 47 8.5  (NW) 5.3 25.4 mph 301° @ 0309 PM 2 or 0.08 0.00 8 64.3 0
Caprock Canyons State Park 11:59 PM 79 36 57 /28 68 / 47 7.5  (W) 5.3 18.6 mph 208° @ 1227 PM 2 or 0.08 0.00 8.9 67.3 0
Childress 2NNE 11:55 PM 79 36 57 /28 68 / 47 7.2  (W) 4.4 13.7 mph 277° @ 0205 AM 1.8 or 0.07 0.00 7.9 60.3 0
Clarendon 2WSW 11:55 PM 79 36 57 /28 68 / 47 7.2  (NW) 4.2 15 mph 309° @ 1125 PM 2 or 0.08 0.00 8.2 63.2 0
Claude 12SW 11:59 PM 79 36 57 /28 68 / 47 8  (W) 5.2 18.7 mph 273° @ 0111 AM 2 or 0.08 0.00 9.1 70 0
Clyde 2WNW 11:59 PM 79 36 57 /28 68 / 47 5.7  (W) 3.8 15.1 mph 243° @ 1202 PM 1.8 or 0.07 0.00 13.5 95.7 0
Colorado City 5NW 11:59 PM 79 36 57 /28 68 / 47 6.4  (NW) 3.9 17.4 mph 148° @ 0213 PM 2 or 0.08 0.00 11.4 81.1 0
Comanche Springs 11:59 PM 79 36 57 /28 68 / 47 3.3  (W) 0.9 12.1 mph 232° @ 0244 PM 1.3 or 0.05 0.00 8.9 66.4 0
Coyanosa 2N 11:59 PM 79 36 57 /28 68 / 47 5.6  (E) 3.1 16.6 mph 277° @ 0947 PM 2 or 0.08 0.00 13.9 94.6 0
Crane 1NNW 11:59 PM 79 36 57 /28 68 / 47 5.8  (NE) 2.5 17.5 mph 189° @ 0145 PM 2.3 or 0.09 0.00 15 102.3 0
Crowell 1E 11:59 PM 79 36 57 /28 68 / 47 5.6  (NW) 4 14.1 mph 301° @ 0230 AM 1.5 or 0.06 0.00 8.9 67 0
Dell City 11:59 PM 79 36 57 /28 68 / 47 5.6  (W) 3.4 16.5 mph 324° @ 1033 PM 2 or 0.08 0.00 13.6 93.9 0
Denver City 7WNW 11:55 PM 79 36 57 /28 68 / 47 8.6  (W) 5.1 22.1 mph 6° @ 0600 PM 1.8 or 0.07 0.00 9.6 68.7 0
Dimmitt 2NE 11:55 PM 79 36 57 /28 68 / 47 6.8  (W) 4.4 18.1 mph 186° @ 0915 AM 1.3 or 0.05 0.00 7.3 55.2 0
Doole 3WNW 11:59 PM 79 36 57 /28 68 / 47 6.3  (NW) 4.4 18.5 mph 96° @ 0229 PM 2.3 or 0.09 0.00 16.1 111.1 0
Dora NM 2SW 11:55 PM 79 36 57 /28 68 / 47 10.8  (SW) 7.3 25.9 mph 205° @ 1015 AM 1.8 or 0.07 0.00 5.6 40.9 0
Dozier 3W 11:59 PM 79 36 57 /28 68 / 47 7.2  (W) 4.7 21.5 mph 329° @ 1145 PM 2 or 0.08 0.00 7.4 57.2 0
Earth 9WSW 11:59 PM 79 36 57 /28 68 / 47 8  (W) 4.3 19.4 mph 4° @ 0244 PM 1.5 or 0.06 0.00 7.4 55.3 0
Endee NM 2SW 11:59 PM 79 36 57 /28 68 / 47 5.2  (SW) 3.1 18.6 mph 3° @ 0331 PM 1.3 or 0.05 0.00 8.2 63 0
Estelline 3SSE 11:59 PM 79 36 57 /28 68 / 47 4.6  (W) 1.8 14.3 mph 269° @ 1155 PM 1.3 or 0.05 0.00 7.9 60.4 0
Floydada 2NNE 11:55 PM 79 36 57 /28 68 / 47 7.3  (NW) 4.1 14.8 mph 204° @ 1255 PM 1.8 or 0.07 0.00 7.9 58.8 0
Fluvanna 3WNW 11:55 PM 79 36 57 /28 68 / 47 6.6  (NW) 4.1 18.5 mph 156° @ 0140 PM 1.5 or 0.06 0.00 8.3 59.1 0
Fort Chadbourne 11:59 PM 79 36 57 /28 68 / 47 4.8  (NW) 3.1 15.3 mph 148° @ 0322 PM 1.8 or 0.07 0.00 13.4 94 0
Fort Lancaster 11:59 PM 79 36 57 /28 68 / 47 4.6  (W) 3 25.7 mph 162° @ 0152 PM 1.8 or 0.07 0.00 15.8 105.9 0
Fort Lewis CO 11:59 PM 79 36 57 /28 68 / 47 6.7  (NE) 4.6 20.5 mph 311° @ 0813 AM 1.5 or 0.06 0.00 14 112.6 0
Fort McKavett 11:59 PM 79 36 57 /28 68 / 47 5  (SW) 1.8 18.9 mph 170° @ 0306 PM 2 or 0.08 0.00 16.4 110.3 0
Friona 2NE 11:55 PM 79 36 57 /28 68 / 47 7.3  (W) 4.7 22.1 mph 19° @ 0505 PM 1.5 or 0.06 0.00 8 60.1 0
Fritch 1WNW 11:59 PM 79 36 57 /28 68 / 47 6.7  (N) 5 24.4 mph 14° @ 0452 PM 1.8 or 0.07 0.00 9.8 77.5 0
Gail 2ESE 11:59 PM 79 36 57 /28 68 / 47 5.6  (NW) 2.7 20.8 mph 146° @ 0151 PM 1.5 or 0.06 0.00 8.8 62.8 0
Goodlett 3W 11:55 PM 79 36 57 /28 68 / 47 8  (NW) 5.1 16.4 mph 301° @ 1155 PM 1.8 or 0.07 0.00 9.1 69.4 0
Goodnight 11:59 PM 79 36 57 /28 68 / 47 10.4  (W) 7 19.4 mph 266° @ 1115 AM 2.5 or 0.1 0.00 7.8 59.9 0
Graham 5SSW 11:59 PM 79 36 57 /28 68 / 47 10.8  (NW) 7.5 19.7 mph 156° @ 0106 PM 2 or 0.08 0.00 8.9 63.9 0
Guadalupe Mtns Natl Park 11:59 PM 79 36 57 /28 68 / 47 12.1  (N) 9.1 42.5 mph 303° @ 0910 AM 3.3 or 0.13 0.00 12.2 82.5 164
Guthrie 10WSW 11:55 PM 79 36 57 /28 68 / 47 4.3  (NW) 2.1 14.2 mph 220° @ 0130 PM 1.5 or 0.06 0.00 1.9 70.6 0
Hackberry 2SSE 11:59 PM 79 36 57 /28 68 / 47 6.6  (W) 4.4 14.4 mph 215° @ 0120 PM 1.8 or 0.07 0.00 11.1 83 0
Happy 1E 11:59 PM 79 36 57 /28 68 / 47 9.3  (NW) 7 22.4 mph 248° @ 1041 AM 2 or 0.08 0.00 9.6 72.9 0
Hart 3N 11:55 PM 79 36 57 /28 68 / 47 6.2  (NW) 3.6 14.1 mph 320° @ 1000 AM 1.3 or 0.05 0.00 7.5 55.9 0
Haskell 1NW 11:55 PM 79 36 57 /28 68 / 47 6  (NW) 3.6 16.6 mph 206° @ 0115 PM 1.8 or 0.07 0.00 10.5 76.7 0
Hefner 1SW 11:59 PM 79 36 57 /28 68 / 47 7.9  (W) 5.1 15.9 mph 224° @ 1247 PM 1.8 or 0.07 0.00 10.9 80.3 0
Hereford 2NW 11:55 PM 79 36 57 /28 68 / 47 7.4  (W) 4.8 21.7 mph 24° @ 0445 PM 1.5 or 0.06 0.00 8.7 66.4 0
Hobbs NM 5NW 11:59 PM 79 36 57 /28 68 / 47 6.5  (W) 4.5 22.4 mph 6° @ 0622 PM 1.8 or 0.07 0.00 9.7 68.5 0
Jayton 1SSE 11:55 PM 79 36 57 /28 68 / 47 5.5  (W) 3.1 13 mph 193° @ 1150 AM 1.5 or 0.06 0.00 10.1 73.2 0
Junction 1SSW 11:59 PM 79 36 57 /28 68 / 47 3.8  (SW) 2.5 16.7 mph 203° @ 0249 PM 1.8 or 0.07 0.00 13.8 91.8 0
Kent 9E 11:59 PM 79 36 57 /28 68 / 47 8.8  (SW) 6.1 40.3 mph 235° @ 0105 PM 3.3 or 0.13 0.00 13.5 90 142
Knox City 3NW 11:59 PM 79 36 57 /28 68 / 47 5.4  (NW) 2.5 15.3 mph 223° @ 1200 PM 1.5 or 0.06 0.00 11 81 0
Lake Alan Henry 1NW 11:59 PM 79 36 57 /28 68 / 47 6.6  (NW) 3.7 15.6 mph 199° @ 1157 AM 1.8 or 0.07 0.00 9.1 66.1 0
Lake McClellan 2NW 11:59 PM 79 36 57 /28 68 / 47 11.7  (NW) 8.4 19.8 mph 295° @ 0411 PM 2.3 or 0.09 0.00 7.8 60.4 0
Lamesa 2SE 11:55 PM 79 36 57 /28 68 / 47 6.6  (NW) 3.9 18.3 mph 150° @ 1225 PM 1.5 or 0.06 0.00 8.5 60.4 0
Lesley 2S 11:59 PM 79 36 57 /28 68 / 47 5.1  (NW) 3.1 13.4 mph 253° @ 0102 AM 1.5 or 0.06 0.00 8.8 67.4 0
Levelland 4S 11:59 PM 79 36 57 /28 68 / 47 7.6  (W) 5.1 24.1 mph 175° @ 1050 AM 1.3 or 0.05 0.00 8.5 61.5 0
Lomax 1SSE 11:59 PM 79 36 57 /28 68 / 47 6.9  (W) 4.4 23.5 mph 175° @ 0226 PM 2.3 or 0.09 0.00 13.6 95.2 0
Lubbock 3WNW TTU 11:55 PM 79 36 57 /28 68 / 47 4.7  (NW) 1.6 16.1 mph 174° @ 1220 PM 1.3 or 0.05 0.00 8.6 63.1 0
McAdoo 3NNW 11:59 PM 79 36 57 /28 68 / 47 7.6  (NW) 4.2 15.3 mph 214° @ 1109 AM 1.5 or 0.06 0.00 9.1 67.1 0
McCamey 1SSW 11:59 PM 79 36 57 /28 68 / 47 5.3  (N) 4 20.2 mph 137° @ 0214 PM 2 or 0.08 0.00 13.6 92.3 0
McLean 1E 11:55 PM 79 36 57 /28 68 / 47 8.4  (NW) 4.4 23 mph 301° @ 0420 PM 2 or 0.08 0.00 8.2 63.6 0
Memphis 1NE 11:59 PM 79 36 57 /28 68 / 47 3.8  (NW) 1.7 13.2 mph 195° @ 1242 PM 1.3 or 0.05 0.00 8.9 68.1 0
Menard 2NW 11:59 PM 79 36 57 /28 68 / 47 4.4  (N) 3.1 17.7 mph 129° @ 0932 PM 1.8 or 0.07 0.00 14.6 98.9 0
Mertzon 3NNE 11:59 PM 79 36 57 /28 68 / 47 5.7  (SW) 3.1 21.2 mph 163° @ 0201 PM 2 or 0.08 0.00 15.2 103.5 0
Morton 1ENE 11:55 PM 79 36 57 /28 68 / 47 8.6  (W) 4.9 23.2 mph 1° @ 0425 PM 1.8 or 0.07 0.00 7.1 52 0
Muleshoe 2SSW 11:55 PM 79 36 57 /28 68 / 47 6.1  (W) 2.1 17.6 mph 4° @ 0225 PM 1.3 or 0.05 0.00 8.2 60.6 0
New Home 11:59 PM 79 36 57 /28 68 / 47 6  (W) 3.2 22.5 mph 182° @ 1120 AM 1.3 or 0.05 0.00 8.2 59.6 0
Northfield 1S 11:55 PM 79 36 57 /28 68 / 47 5.5  (W) 2.7 11.8 mph 300° @ 1225 AM 1.8 or 0.07 0.00 8.5 63.9 0
O'Donnell 1N 11:55 PM 79 36 57 /28 68 / 47 7.5  (NW) 3.8 16.7 mph 167° @ 1140 AM 1.3 or 0.05 0.00 1.3 47.7 0
Odell 4ENE 11:59 PM 79 36 57 /28 68 / 47 6.1  (W) 3.3 15.1 mph 283° @ 1218 AM 1.5 or 0.06 0.00 9.7 74 0
Olton 6S 11:55 PM 79 36 57 /28 68 / 47 6.7  (W) 4.2 16.7 mph 170° @ 0100 PM 1.5 or 0.06 0.00 7.7 57.4 0
Paducah 10SW 11:55 PM 79 36 57 /28 68 / 47 8.9  (W) 5.4 17.3 mph 190° @ 0200 PM 2.3 or 0.09 0.00 1.9 70.6 0
Palo Duro 4E (JA Ranch) 11:59 PM 79 36 57 /28 68 / 47 6.1  (NW) 3.3 15.9 mph 325° @ 0553 PM 1.8 or 0.07 0.00 9.1 69.5 0
Palo Duro Canyon SP Floor 11:59 PM 79 36 57 /28 68 / 47 2.9  (NW) 0.6 11.7 mph 278° @ 0327 PM 1.3 or 0.05 0.00 8.7 66.5 0
Palo Duro Canyon State Park Rim 11:59 PM 79 36 57 /28 68 / 47 8.2  (W) 4.3 19.9 mph 266° @ 0504 AM 2 or 0.08 0.00 9.3 71.6 0
Palo Duro Reservoir 1NW 11:59 PM 79 36 57 /28 68 / 47 11.1  (W) 7.3 33 mph 351° @ 0304 PM 2.3 or 0.09 0.00 8.7 70.7 0
Pampa 2E 11:55 PM 79 36 57 /28 68 / 47 8.9  (NW) 6.1 22.7 mph 326° @ 0340 PM 2 or 0.08 0.00 8.9 69.9 0
Panhandle 1SSW 11:59 PM 79 36 57 /28 68 / 47 8.3  (NW) 6 17 mph 255° @ 0134 PM 1.8 or 0.07 0.00 7.9 61.5 0
Plains 3N 11:55 PM 79 36 57 /28 68 / 47 8  (W) 5.5 25.7 mph 338° @ 0515 PM 1.8 or 0.07 0.00 9.9 71.1 0
Plainview 1S 11:59 PM 79 36 57 /28 68 / 47 4.8  (NW) 2.5 15.3 mph 312° @ 1134 PM 1.3 or 0.05 0.00 7.7 57.5 0
Post 1NE 11:59 PM 79 36 57 /28 68 / 47 6.6  (W) 3.5 18.6 mph 265° @ 0700 AM 1.5 or 0.06 0.00 8.4 60.7 0
Ralls 1SE 11:59 PM 79 36 57 /28 68 / 47 6.1  (NW) 4 16.4 mph 215° @ 1058 AM 1.3 or 0.05 0.00 8.1 59.6 0
Reese Center 11:59 PM 79 36 57 /28 68 / 47 7.1  (NW) 4.2 18.6 mph 184° @ 1203 PM 1.3 or 0.05 0.00 8.5 61.7 0
Roaring Springs 3N 11:59 PM 79 36 57 /28 68 / 47 9.9  (W) 6.5 18.6 mph 196° @ 0123 PM 2.3 or 0.09 0.00 9.7 72 0
Romero 11SSW 11:59 PM 79 36 57 /28 68 / 47 6.8  (NW) 4.2 27.9 mph 36° @ 0300 PM 1.8 or 0.07 0.00 10.3 79.9 0
Rotan 5W 11:59 PM 79 36 57 /28 68 / 47 7.6  (NW) 5.2 18.2 mph 211° @ 1226 PM 2 or 0.08 0.00 14 100.5 0
San Angelo 7NW 11:55 PM 79 36 57 /28 68 / 47 6.2  (NW) 3.7 17 mph 134° @ 0240 PM 2.3 or 0.09 0.00 15.2 104.7 0
Seagraves 1SW 11:55 PM 79 36 57 /28 68 / 47 6.4  (W) 3.3 20.6 mph 178° @ 1135 AM 1.5 or 0.06 0.00 1.5 51.9 0
Segovia 7SSW 11:59 PM 79 36 57 /28 68 / 47 7.4  (W) 4.6 17.8 mph 145° @ 0244 PM 2.5 or 0.1 0.00 16 105.9 0
Seminole 2NNE 11:55 PM 79 36 57 /28 68 / 47 7.8  (W) 4.8 18 mph 164° @ 1140 AM 2 or 0.08 0.00 8.6 61.2 0
Seymour 3NW 11:55 PM 79 36 57 /28 68 / 47 5.2  (NW) 2.9 13.8 mph 307° @ 1205 AM 1.3 or 0.05 0.00 9.2 68.6 0
Sierra Blanca 1SSE 11:59 PM 79 36 57 /28 68 / 47 8  (NE) 5.9 28 mph 332° @ 0741 PM 3 or 0.12 0.00 14.2 94.4 1
Silverton 7ESE 11:55 PM 79 36 57 /28 68 / 47 9.5  (W) 5.8 18.8 mph 227° @ 1230 PM 2 or 0.08 0.00 8 60.5 0
Slaton 2NE 11:59 PM 79 36 57 /28 68 / 47 5.3  (W) 3.1 14.2 mph 185° @ 1104 AM 1.3 or 0.05 0.00 9.1 66.2 0
Smyer 11:59 PM 79 36 57 /28 68 / 47 6.7  (W) 4.3 19.3 mph 180° @ 1047 AM 1.5 or 0.06 0.00 8.9 64.7 0
Snyder 3E 11:55 PM 79 36 57 /28 68 / 47 7.5  (NW) 3 19 mph 144° @ 0215 PM 1.8 or 0.07 0.00 8.8 62.7 0
Snyder 3SSW 11:59 PM 79 36 57 /28 68 / 47 6.3  (NW) 3.9 17 mph 75° @ 0527 PM 1.8 or 0.07 0.00 10.1 72.2 0
South Plains 3ENE 11:59 PM 79 36 57 /28 68 / 47 6.9  (NW) 4.5 14.7 mph 234° @ 1234 PM 1.8 or 0.07 0.00 8.6 63.9 0
Spur 1W 11:55 PM 79 36 57 /28 68 / 47 5  (NW) 2.1 11.2 mph 200° @ 1100 AM 1.3 or 0.05 0.00 9.8 71.9 0
St. Lawrence 5SW 11:55 PM 79 36 57 /28 68 / 47 9  (SW) 5.8 30.4 mph 175° @ 0135 PM 2.5 or 0.1 0.00 3.1 105.1 0
Stamford 5ESE 11:59 PM 79 36 57 /28 68 / 47 5.9  (W) 3.5 17.1 mph 352° @ 1019 PM 1.8 or 0.07 0.00 12.6 91.4 0
Sterling City 4WSW 11:59 PM 79 36 57 /28 68 / 47 4.3  (NW) 2.4 20.1 mph 118° @ 0117 PM 1.8 or 0.07 0.00 11.6 80.6 0
Stinnett 1NNW 11:59 PM 79 36 57 /28 68 / 47 12.2  (NW) 8 26 mph 350° @ 0416 PM 2.3 or 0.09 0.00 9.5 75.1 0
Stratford 4WNW 11:59 PM 79 36 57 /28 68 / 47 12  (W) 8.1 34.8 mph 0° @ 0218 PM 2.3 or 0.09 0.00 9.9 79.8 0
Sundown 8WSW 11:55 PM 79 36 57 /28 68 / 47 9.2  (W) 5.4 27.2 mph 185° @ 1050 AM 1.8 or 0.07 0.00 7.1 51.5 0
Sweetwater 11SW 11:59 PM 79 36 57 /28 68 / 47 6.9  (W) 4.2 18.6 mph 156° @ 0259 PM 2 or 0.08 0.00 14.3 101 0
Tahoka 3NNE 11:59 PM 79 36 57 /28 68 / 47 6.2  (W) 3 19.5 mph 172° @ 1134 AM 1.3 or 0.05 0.00 7.7 55.9 0
Tarzan 2WNW 11:59 PM 79 36 57 /28 68 / 47 7.5  (W) 4.6 23.5 mph 140° @ 0128 PM 2 or 0.08 0.00 11.6 81.4 0
Tatum NM 2SW 11:55 PM 79 36 57 /28 68 / 47 9.6  (SW) 5.4 25.2 mph 185° @ 1105 AM 1.8 or 0.07 0.00 9.5 68.2 0
Throckmorton 1SW 11:59 PM 79 36 57 /28 68 / 47 5.8  (W) 2.6 15.2 mph 351° @ 0919 PM 1.8 or 0.07 0.00 11.7 85.7 0
Truscott 2SE 11:59 PM 79 36 57 /28 68 / 47 5.9  (NW) 3.4 13.9 mph 304° @ 0153 AM 1.5 or 0.06 0.00 10.1 75.4 0
Tulia 2ENE 11:55 PM 79 36 57 /28 68 / 47 9.2  (NW) 6.2 20.4 mph 247° @ 0625 AM 1.8 or 0.07 0.00 7.2 54.6 0
Turkey 2WSW 11:55 PM 79 36 57 /28 68 / 47 7.3  (W) 4.6 17.2 mph 220° @ 0505 AM 2 or 0.08 0.00 7.6 57.5 0
Umbarger 3NNE 11:59 PM 79 36 57 /28 68 / 47 9.2  (NW) 5.9 20.3 mph 213° @ 0128 PM 1.8 or 0.07 0.00 8.7 66.1 0
Van Horn 3ENE 11:59 PM 79 36 57 /28 68 / 47 9.9  (SW) 6.2 24.9 mph 84° @ 0655 PM 3.3 or 0.13 0.00 16.4 109.5 1
Vega 4E 11:59 PM 79 36 57 /28 68 / 47 7.4  (W) 4.7 19.7 mph 10° @ 0545 PM 1.5 or 0.06 0.00 9.2 71 0
Vigo Park 11:59 PM 79 36 57 /28 68 / 47 8.9  (W) 5.6 20.8 mph 225° @ 1215 PM 2 or 0.08 0.00 7.7 58.5 0
Wall 2E 11:59 PM 79 36 57 /28 68 / 47 7.6  (W) 5 18.9 mph 168° @ 0201 PM 2.5 or 0.1 0.00 15.8 108.4 0
Weinert 2NNE 11:59 PM 79 36 57 /28 68 / 47 5.2  (NW) 2.7 15.7 mph 208° @ 0115 PM 1.5 or 0.06 0.00 9.8 72.2 0
Welch 11:59 PM 79 36 57 /28 68 / 47 7.1  (W) 4.3 21 mph 162° @ 1147 AM 1.3 or 0.05 0.00 8.4 60.1 0
White River Lake 6NW 11:59 PM 79 36 57 /28 68 / 47 8.2  (NW) 5.1 23 mph 276° @ 0635 AM 1.8 or 0.07 0.00 9.8 72 0
Wolfforth 6SSW 11:59 PM 79 36 57 /28 68 / 47 7.4  (W) 4.4 19.7 mph 172° @ 1111 AM 1.3 or 0.05 0.00 8.9 64.4 0

WestTexas Mesonet Home    Site Map/Menu  National Weather Service Lubbock   Soil Data   Latest Observation Page   Previous  Date   Next Last